createdAt,value
2018-04-09T00:00:36.451Z,14.07
2018-04-09T00:03:04.955Z,14.33
2018-04-09T00:05:33.459Z,12.40
2018-04-09T00:08:01.881Z,14.17
2018-04-09T00:10:30.334Z,12.30
2018-04-09T00:12:58.733Z,13.40
2018-04-09T00:15:27.137Z,12.20
2018-04-09T00:17:55.569Z,13.17
2018-04-09T00:20:23.987Z,13.43
2018-04-09T00:22:52.414Z,14.27
2018-04-09T00:25:20.813Z,14.03
2018-04-09T00:27:49.270Z,13.90
2018-04-09T00:30:17.690Z,15.63
2018-04-09T00:32:46.256Z,13.20
2018-04-09T00:35:14.956Z,13.80
2018-04-09T00:37:43.414Z,12.73
2018-04-09T00:40:11.920Z,14.10
2018-04-09T00:42:40.353Z,13.10
2018-04-09T00:45:08.880Z,14.93
2018-04-09T00:47:37.326Z,15.00
2018-04-09T00:50:05.835Z,14.53
2018-04-09T00:52:34.252Z,14.50
2018-04-09T00:55:04.050Z,15.13
2018-04-09T00:57:32.523Z,16.40
2018-04-09T01:00:00.967Z,20.27
2018-04-09T01:02:29.966Z,16.47
2018-04-09T01:04:58.341Z,15.80
2018-04-09T01:07:26.701Z,14.60
2018-04-09T01:09:55.113Z,17.00
2018-04-09T01:12:23.489Z,15.87
2018-04-09T01:14:51.837Z,17.60
2018-04-09T01:17:21.152Z,16.90
2018-04-09T01:19:49.503Z,16.57
2018-04-09T01:22:17.886Z,18.30
2018-04-09T01:24:47.167Z,17.00
2018-04-09T01:27:15.566Z,15.63
2018-04-09T01:29:43.973Z,17.80
2018-04-09T01:32:12.746Z,17.57
2018-04-09T01:34:41.265Z,18.23
2018-04-09T01:37:09.731Z,19.50
2018-04-09T01:39:38.203Z,18.80
2018-04-09T01:42:06.700Z,17.70
2018-04-09T01:44:35.176Z,16.30
2018-04-09T01:47:03.638Z,17.63
2018-04-09T01:49:32.012Z,19.30
2018-04-09T01:52:00.514Z,16.23
2018-04-09T01:54:29.056Z,17.93
2018-04-09T01:56:57.435Z,16.97
2018-04-09T01:59:25.797Z,17.50
2018-04-09T02:01:54.192Z,18.00
2018-04-09T02:04:22.608Z,18.00
2018-04-09T02:06:51.021Z,18.30
2018-04-09T02:09:19.449Z,16.53
2018-04-09T02:11:48.221Z,16.50
2018-04-09T02:14:16.609Z,17.13
2018-04-09T02:16:45.010Z,19.53
2018-04-09T02:19:13.451Z,18.17
2018-04-09T02:21:41.884Z,18.20
2018-04-09T02:24:10.446Z,19.07
2018-04-09T02:26:38.832Z,18.40
2018-04-09T02:29:07.313Z,18.77
2018-04-09T02:31:35.982Z,19.20
2018-04-09T02:34:04.395Z,18.33
2018-04-09T02:36:32.940Z,19.93
2018-04-09T02:39:01.357Z,19.43
2018-04-09T02:41:29.709Z,19.50
2018-04-09T02:43:58.064Z,19.13
2018-04-09T02:46:26.477Z,19.07
2018-04-09T02:48:54.860Z,20.03
2018-04-09T02:51:23.221Z,19.57
2018-04-09T02:53:52.921Z,20.50
2018-04-09T02:56:21.309Z,19.50
2018-04-09T02:58:49.672Z,19.47
2018-04-09T03:01:18.222Z,22.87
2018-04-09T03:03:46.692Z,19.70
2018-04-09T03:06:15.431Z,20.43
2018-04-09T03:08:44.059Z,22.20
2018-04-09T03:11:12.786Z,22.90
2018-04-09T03:13:41.238Z,20.97
2018-04-09T03:16:09.813Z,21.60
2018-04-09T03:18:38.252Z,22.63
2018-04-09T03:21:06.738Z,24.30
2018-04-09T03:23:35.604Z,21.87
2018-04-09T03:26:04.905Z,23.37
2018-04-09T03:28:33.323Z,22.23
2018-04-09T03:31:07.310Z,21.80
2018-04-09T03:33:35.720Z,22.67
2018-04-09T03:36:04.319Z,22.30
2018-04-09T03:38:32.781Z,23.10
2018-04-09T03:41:01.161Z,22.87
2018-04-09T03:43:29.562Z,23.20
2018-04-09T03:45:58.001Z,22.97
2018-04-09T03:48:26.380Z,23.30
2018-04-09T03:50:55.479Z,23.53
2018-04-09T03:53:23.917Z,24.23
2018-04-09T03:55:52.287Z,24.50
2018-04-09T03:58:20.976Z,23.50
2018-04-09T04:00:49.526Z,24.17
2018-04-09T04:03:17.977Z,24.13
2018-04-09T04:05:46.355Z,24.40
2018-04-09T04:08:14.772Z,24.57
2018-04-09T04:10:43.150Z,24.00
2018-04-09T04:13:11.571Z,23.40
2018-04-09T04:15:52.066Z,25.73
2018-04-09T04:18:32.250Z,24.37
2018-04-09T04:21:13.243Z,24.90
2018-04-09T04:23:42.972Z,25.47
2018-04-09T04:26:12.294Z,24.03
2018-04-09T04:28:42.296Z,27.10
2018-04-09T04:31:14.684Z,25.57
2018-04-09T04:33:46.147Z,24.27
2018-04-09T04:36:15.913Z,23.20
2018-04-09T04:38:44.695Z,26.00
2018-04-09T04:41:13.462Z,24.30
2018-04-09T04:43:41.946Z,24.60
2018-04-09T04:46:10.406Z,24.80
2018-04-09T04:48:38.888Z,28.10
2018-04-09T04:51:09.697Z,24.30
2018-04-09T04:53:39.119Z,24.27
2018-04-09T04:56:07.634Z,27.20
2018-04-09T04:58:36.245Z,24.53
2018-04-09T05:01:04.749Z,25.97
2018-04-09T05:03:33.366Z,26.70
2018-04-09T05:06:01.727Z,26.00
2018-04-09T05:08:30.317Z,25.90
2018-04-09T05:10:58.812Z,27.10
2018-04-09T05:13:27.258Z,26.07
2018-04-09T05:15:55.673Z,25.43
2018-04-09T05:18:24.202Z,27.40
2018-04-09T05:20:52.677Z,26.83
2018-04-09T05:23:21.481Z,25.97
2018-04-09T05:25:50.174Z,25.07
2018-04-09T05:28:18.843Z,25.33
2018-04-09T05:30:47.254Z,27.73
2018-04-09T05:33:15.770Z,26.37
2018-04-09T05:35:44.180Z,25.77
2018-04-09T05:38:12.542Z,29.70
2018-04-09T05:40:40.983Z,28.20
2018-04-09T05:43:09.363Z,27.40
2018-04-09T05:45:37.885Z,28.80
2018-04-09T05:48:06.655Z,26.17
2018-04-09T05:50:35.149Z,27.60
2018-04-09T05:53:03.603Z,26.23
2018-04-09T05:55:32.043Z,26.93
2018-04-09T05:58:00.423Z,24.57
2018-04-09T06:00:28.870Z,27.20
2018-04-09T06:02:57.441Z,27.60
2018-04-09T06:05:25.920Z,26.70
2018-04-09T06:07:54.461Z,25.47
2018-04-09T06:10:24.275Z,26.70
2018-04-09T06:12:53.784Z,27.63
2018-04-09T06:15:22.290Z,27.67
2018-04-09T06:17:51.147Z,29.70
2018-04-09T06:20:21.774Z,27.37
2018-04-09T06:22:50.568Z,29.53
2018-04-09T06:25:19.354Z,24.90
2018-04-09T06:27:48.043Z,25.90
2018-04-09T06:30:16.676Z,26.40
2018-04-09T06:32:45.325Z,26.53
2018-04-09T06:35:14.107Z,26.43
2018-04-09T06:37:42.857Z,25.37
2018-04-09T06:40:12.191Z,26.93
2018-04-09T06:42:41.079Z,25.50
2018-04-09T06:45:09.552Z,24.43
2018-04-09T06:47:38.871Z,26.67
2018-04-09T06:50:07.249Z,28.47
2018-04-09T06:52:35.763Z,26.70
2018-04-09T06:55:04.256Z,27.67
2018-04-09T06:57:32.738Z,28.30
2018-04-09T07:00:01.585Z,25.67
2018-04-09T07:02:30.082Z,26.30
2018-04-09T07:04:58.449Z,26.00
2018-04-09T07:07:26.962Z,26.73
2018-04-09T07:09:55.560Z,26.83
2018-04-09T07:14:58.920Z,27.50
2018-04-09T07:17:27.266Z,26.57
2018-04-09T07:19:55.644Z,26.60
2018-04-09T07:22:25.036Z,26.87
2018-04-09T07:24:53.807Z,27.00
2018-04-09T07:27:22.147Z,26.10
2018-04-09T07:29:51.699Z,28.23
2018-04-09T07:32:20.178Z,26.67
2018-04-09T07:34:48.616Z,27.87
2018-04-09T07:37:17.093Z,27.13
2018-04-09T07:39:45.573Z,26.70
2018-04-09T07:42:14.101Z,27.80
2018-04-09T07:44:42.741Z,30.03
2018-04-09T07:47:11.642Z,30.77
2018-04-09T07:49:40.160Z,30.83
2018-04-09T07:52:08.589Z,28.73
2018-04-09T07:54:36.997Z,30.23
2018-04-09T07:57:05.380Z,26.47
2018-04-09T07:59:33.934Z,29.63
2018-04-09T08:02:02.306Z,27.70
2018-04-09T08:04:30.680Z,29.30
2018-04-09T08:06:59.070Z,29.67
2018-04-09T08:09:27.511Z,28.40
2018-04-09T08:11:55.938Z,30.50
2018-04-09T08:14:24.346Z,27.73
2018-04-09T08:16:52.816Z,28.80
2018-04-09T08:19:21.334Z,26.10
2018-04-09T08:21:49.869Z,27.70
2018-04-09T08:24:18.282Z,27.97
2018-04-09T08:26:46.815Z,30.70
2018-04-09T08:29:16.012Z,32.00
2018-04-09T08:31:44.404Z,30.97
2018-04-09T08:34:12.880Z,31.27
2018-04-09T08:36:41.510Z,28.57
2018-04-09T08:39:09.915Z,31.23
2018-04-09T08:41:38.331Z,30.47
2018-04-09T08:44:07.769Z,31.47
2018-04-09T08:46:36.145Z,31.83
2018-04-09T08:49:04.526Z,33.57
2018-04-09T08:51:33.005Z,32.13
2018-04-09T08:54:01.385Z,31.33
2018-04-09T08:56:29.914Z,32.87
2018-04-09T08:58:58.352Z,32.00
2018-04-09T09:01:26.794Z,31.17
2018-04-09T09:03:55.298Z,32.20
2018-04-09T09:06:25.579Z,31.53
2018-04-09T09:08:53.987Z,30.67
2018-04-09T09:11:22.396Z,31.33
2018-04-09T09:13:52.692Z,31.03
2018-04-09T09:16:21.095Z,31.77
2018-04-09T09:18:49.474Z,32.40
2018-04-09T09:21:17.928Z,32.47
2018-04-09T09:23:46.410Z,32.13
2018-04-09T09:26:14.967Z,32.60
2018-04-09T09:28:44.296Z,32.07
2018-04-09T09:31:12.870Z,34.07
2018-04-09T09:33:41.505Z,32.97
2018-04-09T09:36:10.348Z,35.37
2018-04-09T09:38:38.920Z,33.97
2018-04-09T09:41:07.444Z,34.90
2018-04-09T09:43:36.855Z,35.17
2018-04-09T09:46:05.742Z,36.77
2018-04-09T09:48:34.734Z,34.17
2018-04-09T09:51:03.376Z,36.00
2018-04-09T09:53:32.479Z,34.17
2018-04-09T09:56:01.062Z,35.80
2018-04-09T09:58:30.562Z,35.47
2018-04-09T10:01:02.472Z,37.27
2018-04-09T10:03:31.470Z,34.50
2018-04-09T10:06:01.584Z,36.70
2018-04-09T10:08:29.979Z,36.43
2018-04-09T10:10:58.349Z,40.33
2018-04-09T10:13:26.858Z,36.90
2018-04-09T10:15:55.265Z,37.90
2018-04-09T10:18:23.665Z,39.70
2018-04-09T10:20:52.064Z,35.47
2018-04-09T10:23:20.488Z,38.03
2018-04-09T10:25:49.230Z,38.30
2018-04-09T10:28:17.739Z,38.90
2018-04-09T10:30:46.223Z,38.50
2018-04-09T10:33:14.738Z,37.77
2018-04-09T10:35:44.079Z,42.43
2018-04-09T10:38:12.710Z,44.53
2018-04-09T10:40:41.331Z,43.40
2018-04-09T10:43:11.712Z,45.67
2018-04-09T10:45:40.504Z,43.33
2018-04-09T10:48:09.264Z,43.00
2018-04-09T10:50:38.487Z,45.47
2018-04-09T10:53:06.894Z,43.37
2018-04-09T10:55:35.799Z,46.33
2018-04-09T10:58:05.248Z,44.40
2018-04-09T11:03:05.142Z,49.90
2018-04-09T11:05:33.720Z,49.43
2018-04-09T11:08:02.155Z,49.23
2018-04-09T11:10:30.733Z,48.70
2018-04-09T11:12:59.538Z,42.93
2018-04-09T11:15:27.913Z,44.10
2018-04-09T11:17:56.423Z,45.00
2018-04-09T11:20:25.536Z,45.00
2018-04-09T11:22:54.366Z,45.10
2018-04-09T11:25:22.828Z,45.90
2018-04-09T11:27:51.330Z,47.70
2018-04-09T11:30:19.691Z,46.77
2018-04-09T11:32:48.072Z,48.30
2018-04-09T11:35:16.445Z,44.13
2018-04-09T11:37:44.808Z,46.83
2018-04-09T11:40:13.208Z,45.30
2018-04-09T11:42:42.200Z,46.20
2018-04-09T11:45:11.266Z,44.73
2018-04-09T11:47:39.790Z,43.97
2018-04-09T11:50:08.228Z,44.63
2018-04-09T11:52:36.582Z,42.27
2018-04-09T11:55:04.953Z,46.20
2018-04-09T11:57:33.365Z,45.63
2018-04-09T12:00:01.796Z,43.30
2018-04-09T12:02:30.189Z,44.60
2018-04-09T12:04:59.393Z,41.50
2018-04-09T12:07:27.779Z,39.23
2018-04-09T12:09:56.188Z,40.67
2018-04-09T12:12:25.611Z,40.47
2018-04-09T12:14:54.245Z,40.30
2018-04-09T12:17:22.593Z,38.67
2018-04-09T12:19:51.035Z,39.23
2018-04-09T12:22:19.473Z,40.43
2018-04-09T12:24:48.648Z,39.47
2018-04-09T12:27:17.749Z,41.60
2018-04-09T12:29:46.127Z,43.70
2018-04-09T12:32:14.504Z,41.40
2018-04-09T12:34:43.517Z,41.97
2018-04-09T12:37:12.064Z,40.47
2018-04-09T12:39:41.036Z,43.73
2018-04-09T12:42:10.287Z,43.13
2018-04-09T12:44:38.677Z,44.67
2018-04-09T12:47:07.219Z,43.60
2018-04-09T12:49:36.088Z,39.50
2018-04-09T12:52:04.720Z,41.90
2018-04-09T12:54:33.200Z,41.97
2018-04-09T12:57:02.648Z,42.63
2018-04-09T12:59:31.113Z,43.40
2018-04-09T13:01:59.504Z,41.57
2018-04-09T13:04:28.044Z,43.43
2018-04-09T13:06:56.825Z,41.53
2018-04-09T13:09:25.180Z,43.03
2018-04-09T13:11:53.674Z,39.20
2018-04-09T13:14:22.243Z,40.07
2018-04-09T13:16:50.638Z,40.57
2018-04-09T13:19:19.027Z,41.13
2018-04-09T13:21:47.445Z,38.20
2018-04-09T13:24:15.905Z,40.43
2018-04-09T13:26:44.483Z,37.90
2018-04-09T13:29:13.255Z,39.93
2018-04-09T13:31:41.769Z,40.87
2018-04-09T13:34:10.813Z,41.13
2018-04-09T13:36:39.447Z,39.07
2018-04-09T13:39:08.992Z,37.20
2018-04-09T13:41:38.293Z,36.90
2018-04-09T13:44:06.845Z,36.60
2018-04-09T13:46:35.429Z,40.43
2018-04-09T13:49:04.055Z,38.73
2018-04-09T13:51:33.409Z,40.77
2018-04-09T13:54:01.760Z,39.77
2018-04-09T13:56:30.164Z,41.03
2018-04-09T13:58:58.532Z,38.37
2018-04-09T14:01:26.895Z,38.70
2018-04-09T14:03:55.303Z,38.27
2018-04-09T14:06:23.650Z,34.70
2018-04-09T14:08:52.008Z,32.60
2018-04-09T14:11:20.888Z,33.50
2018-04-09T14:13:49.987Z,30.67
2018-04-09T14:16:18.382Z,31.97
2018-04-09T14:18:46.847Z,34.27
2018-04-09T14:21:15.228Z,39.77
2018-04-09T14:23:43.585Z,40.70
2018-04-09T14:26:12.082Z,40.60
2018-04-09T14:28:40.527Z,43.50
2018-04-09T14:31:09.226Z,45.27
2018-04-09T14:33:37.869Z,45.60
2018-04-09T14:36:06.442Z,42.17
2018-04-09T14:38:35.096Z,45.30
2018-04-09T14:41:03.739Z,46.50
2018-04-09T14:43:32.531Z,43.57
2018-04-09T14:46:01.805Z,44.43
2018-04-09T14:48:34.031Z,43.33
2018-04-09T14:51:02.564Z,42.47
2018-04-09T14:53:30.953Z,44.80
2018-04-09T14:56:00.360Z,40.23
2018-04-09T14:58:29.118Z,41.97
2018-04-09T15:00:57.665Z,39.93
2018-04-09T15:03:26.452Z,42.10
2018-04-09T15:05:56.522Z,42.90
2018-04-09T15:08:24.952Z,38.20
2018-04-09T15:10:54.591Z,45.13
2018-04-09T15:13:22.990Z,44.57
2018-04-09T15:15:51.380Z,43.77
2018-04-09T15:18:20.651Z,44.50
2018-04-09T15:20:49.061Z,46.27
2018-04-09T15:23:17.456Z,46.53
2018-04-09T15:25:45.931Z,49.90
2018-04-09T15:28:14.306Z,47.90
2018-04-09T15:30:42.687Z,49.10
2018-04-09T15:33:11.267Z,46.90
2018-04-09T15:35:39.761Z,48.80
2018-04-09T15:38:08.349Z,49.50
2018-04-09T15:40:36.773Z,48.17
2018-04-09T15:43:05.217Z,51.30
2018-04-09T15:45:34.097Z,49.10
2018-04-09T15:48:03.002Z,53.90
2018-04-09T15:50:31.834Z,50.90
2018-04-09T15:53:00.651Z,51.63
2018-04-09T15:55:29.582Z,51.50
2018-04-09T15:57:57.992Z,49.77
2018-04-09T16:00:26.651Z,49.23
2018-04-09T16:02:55.084Z,50.53
2018-04-09T16:05:23.579Z,45.47
2018-04-09T16:07:51.942Z,45.40
2018-04-09T16:10:21.303Z,45.13
2018-04-09T16:12:49.738Z,41.57
2018-04-09T16:15:18.213Z,42.63
2018-04-09T16:18:00.075Z,40.53
2018-04-09T16:20:28.463Z,38.67
2018-04-09T16:22:57.018Z,39.83
2018-04-09T16:25:25.478Z,40.00
2018-04-09T16:27:54.112Z,39.70
2018-04-09T16:30:22.578Z,36.73
2018-04-09T16:32:51.543Z,34.70
2018-04-09T16:35:19.933Z,35.30
2018-04-09T16:37:48.305Z,32.90
2018-04-09T16:40:16.745Z,36.10
2018-04-09T16:42:45.186Z,35.30
2018-04-09T16:45:13.555Z,34.03
2018-04-09T16:47:42.958Z,35.23
2018-04-09T16:50:11.403Z,33.60
2018-04-09T16:52:39.891Z,33.03
2018-04-09T16:55:09.116Z,30.33
2018-04-09T16:57:38.105Z,28.90
2018-04-09T17:00:07.325Z,29.00
2018-04-09T17:02:37.352Z,26.67
2018-04-09T17:05:06.264Z,28.00
2018-04-09T17:07:36.357Z,28.03
2018-04-09T17:10:06.197Z,28.10
2018-04-09T17:12:36.534Z,30.00
2018-04-09T17:15:06.822Z,29.47
2018-04-09T17:17:37.044Z,31.37
2018-04-09T17:20:06.973Z,30.60
2018-04-09T17:22:36.391Z,31.80
2018-04-09T17:25:05.839Z,31.13
2018-04-09T17:27:36.398Z,32.33
2018-04-09T17:30:04.988Z,30.53
2018-04-09T17:32:33.535Z,30.97
2018-04-09T17:35:02.079Z,30.23
2018-04-09T17:37:30.606Z,29.03
2018-04-09T17:40:00.069Z,34.93
2018-04-09T17:42:28.881Z,31.77
2018-04-09T17:44:57.571Z,32.33
2018-04-09T17:47:26.069Z,32.83
2018-04-09T17:49:54.921Z,33.37
2018-04-09T17:52:23.344Z,33.57
2018-04-09T17:54:52.693Z,35.93
2018-04-09T17:57:21.170Z,33.57
2018-04-09T17:59:49.547Z,37.00
2018-04-09T18:02:18.669Z,38.87
2018-04-09T18:04:47.015Z,38.63
2018-04-09T18:07:15.452Z,38.67
2018-04-09T18:09:44.961Z,42.60
2018-04-09T18:12:13.390Z,40.93
2018-04-09T18:14:41.807Z,41.57
2018-04-09T18:17:11.226Z,44.10
2018-04-09T18:19:39.889Z,48.10
2018-04-09T18:22:08.369Z,48.00
2018-04-09T18:24:37.609Z,48.00
2018-04-09T18:27:06.168Z,49.93
2018-04-09T18:29:34.770Z,48.87
2018-04-09T18:32:03.220Z,49.33
2018-04-09T18:34:31.629Z,52.00
2018-04-09T18:37:00.553Z,51.90
2018-04-09T18:39:29.195Z,53.73
2018-04-09T18:41:57.697Z,53.40
2018-04-09T18:44:26.216Z,51.10
2018-04-09T18:46:54.924Z,50.53
2018-04-09T18:49:23.499Z,49.40
2018-04-09T18:51:51.875Z,48.90
2018-04-09T18:54:21.093Z,47.60
2018-04-09T18:56:50.347Z,45.70
2018-04-09T18:59:18.800Z,43.57
2018-04-09T19:01:47.186Z,40.97
2018-04-09T19:04:15.591Z,41.70
2018-04-09T19:06:43.966Z,41.27
2018-04-09T19:09:12.521Z,40.40
2018-04-09T19:11:40.956Z,42.73
2018-04-09T19:14:09.505Z,40.27
2018-04-09T19:16:38.344Z,41.43
2018-04-09T19:19:07.253Z,40.40
2018-04-09T19:21:36.284Z,41.60
2018-04-09T19:24:05.589Z,37.87
2018-04-09T19:26:34.250Z,41.03
2018-04-09T19:29:03.071Z,41.67
2018-04-09T19:31:31.811Z,40.53
2018-04-09T19:34:00.604Z,39.67
2018-04-09T19:36:34.864Z,38.67
2018-04-09T19:39:08.709Z,42.77
2018-04-09T19:41:54.764Z,43.67
2018-04-09T19:44:41.163Z,42.03
2018-04-09T19:47:09.849Z,48.20
2018-04-09T19:49:38.511Z,45.07
2018-04-09T19:52:07.265Z,45.60
2018-04-09T19:54:35.970Z,46.67
2018-04-09T19:57:04.529Z,46.47
2018-04-09T19:59:33.608Z,43.43
2018-04-09T20:02:03.787Z,44.53
2018-04-09T20:04:32.581Z,47.77
2018-04-09T20:07:01.322Z,45.63
2018-04-09T20:09:29.848Z,45.93
2018-04-09T20:11:58.577Z,44.43
2018-04-09T20:14:29.183Z,47.70
2018-04-09T20:16:58.977Z,46.50
2018-04-09T20:19:27.556Z,44.77
2018-04-09T20:21:56.479Z,46.30
2018-04-09T20:24:25.619Z,45.20
2018-04-09T20:26:54.277Z,46.67
2018-04-09T20:29:22.704Z,45.37
2018-04-09T20:31:51.181Z,44.93
2018-04-09T20:34:19.611Z,49.47
2018-04-09T20:36:48.093Z,47.80
2018-04-09T20:39:18.015Z,45.97
2018-04-09T20:41:46.405Z,47.53
2018-04-09T20:44:14.929Z,46.57
2018-04-09T20:46:43.960Z,45.10
2018-04-09T20:49:12.406Z,49.13
2018-04-09T20:51:40.849Z,50.67
2018-04-09T20:54:09.452Z,51.20
2018-04-09T20:56:38.750Z,50.27
2018-04-09T20:59:07.151Z,49.80
2018-04-09T21:01:35.771Z,48.40
2018-04-09T21:04:04.387Z,49.30
2018-04-09T21:06:32.907Z,52.03
2018-04-09T21:09:02.480Z,52.70
2018-04-09T21:11:31.198Z,54.13
2018-04-09T21:13:59.828Z,49.88
2018-04-09T21:16:36.840Z,52.78
2018-04-09T21:19:05.634Z,51.60
2018-04-09T21:21:35.320Z,53.35
2018-04-09T21:24:04.109Z,53.00
2018-04-09T21:26:32.899Z,50.97
2018-04-09T21:29:01.657Z,53.00
2018-04-09T21:31:30.589Z,55.00
2018-04-09T21:33:59.286Z,54.58
2018-04-09T21:36:32.056Z,54.83
2018-04-09T21:39:00.724Z,52.28
2018-04-09T21:41:29.592Z,53.20
2018-04-09T21:43:59.992Z,54.03
2018-04-09T21:46:28.537Z,54.25
2018-04-09T21:48:57.317Z,54.15
2018-04-09T21:51:27.259Z,52.85
2018-04-09T21:56:47.217Z,49.83
2018-04-09T21:59:15.815Z,50.97
2018-04-09T22:01:44.202Z,51.00
2018-04-09T22:04:12.756Z,54.47
2018-04-09T22:06:42.374Z,53.30
2018-04-09T22:09:11.824Z,51.05
2018-04-09T22:11:40.245Z,49.63
2018-04-09T22:14:08.616Z,48.75
2018-04-09T22:16:37.142Z,52.58
2018-04-09T22:19:05.588Z,56.80
2018-04-09T22:21:34.040Z,51.72
2018-04-09T22:24:02.882Z,53.25
2018-04-09T22:26:31.901Z,53.05
2018-04-09T22:29:00.373Z,56.67
2018-04-09T22:31:29.004Z,57.58
2018-04-09T22:33:57.854Z,53.85
2018-04-09T22:36:26.732Z,56.58
2018-04-09T22:38:55.258Z,58.22
2018-04-09T22:41:25.025Z,52.78
2018-04-09T22:43:53.524Z,60.25
2018-04-09T22:46:21.880Z,57.45
2018-04-09T22:48:50.715Z,56.53
2018-04-09T22:51:19.136Z,56.35
2018-04-09T22:53:47.553Z,54.03
2018-04-09T22:56:16.058Z,54.38
2018-04-09T22:58:44.615Z,56.13
2018-04-09T23:01:13.095Z,55.58
2018-04-09T23:03:41.771Z,54.38
2018-04-09T23:06:10.163Z,57.42
2018-04-09T23:08:38.711Z,54.67
2018-04-09T23:11:07.400Z,57.47
2018-04-09T23:13:35.814Z,57.70
2018-04-09T23:16:04.326Z,58.45
2018-04-09T23:18:33.020Z,57.50
2018-04-09T23:21:01.470Z,55.65
2018-04-09T23:23:30.018Z,61.40
2018-04-09T23:25:59.566Z,60.17
2018-04-09T23:28:28.552Z,61.97
2018-04-09T23:30:57.325Z,60.08
2018-04-09T23:33:27.139Z,60.22
2018-04-09T23:35:56.842Z,63.67
2018-04-09T23:38:25.601Z,62.30
2018-04-09T23:52:20.417Z,65.97
2018-04-09T23:54:48.782Z,69.07
2018-04-09T23:57:17.139Z,67.10
2018-04-09T23:59:46.066Z,69.05
